createdAt,value
2019-05-02T03:32:30.931Z,16.20
2019-05-02T03:37:44.841Z,16.17
2019-05-02T03:42:47.681Z,15.23
2019-05-02T03:47:51.273Z,16.33
2019-05-02T03:52:54.553Z,16.13
2019-05-02T03:57:57.282Z,16.60
2019-05-02T04:03:02.139Z,14.27
2019-05-02T04:08:04.463Z,16.20
2019-05-02T04:13:09.134Z,18.07
2019-05-02T04:23:38.057Z,16.60
2019-05-02T04:28:45.555Z,17.13
2019-05-02T04:33:56.894Z,17.03
2019-05-02T04:39:15.600Z,18.73
2019-05-02T04:44:20.194Z,16.27
2019-05-02T04:49:53.930Z,17.33
2019-05-02T04:55:08.209Z,17.20
2019-05-02T05:06:12.060Z,17.43
2019-05-02T05:11:21.312Z,17.33
2019-05-02T05:16:21.748Z,18.47
2019-05-02T05:21:25.024Z,19.10
2019-05-02T05:26:34.018Z,17.00
2019-05-02T05:31:38.247Z,17.50
2019-05-02T05:36:52.355Z,18.13
2019-05-02T05:42:04.195Z,19.10
2019-05-02T05:58:52.547Z,18.50
2019-05-02T06:03:57.835Z,18.63
2019-05-02T06:09:01.335Z,17.03
2019-05-02T06:14:05.954Z,16.13
2019-05-02T06:36:39.557Z,14.57
2019-05-02T06:41:42.196Z,13.50
2019-05-02T06:46:45.323Z,13.33
2019-05-02T06:52:13.842Z,14.13
2019-05-02T06:57:19.170Z,12.80
2019-05-02T07:02:20.787Z,12.27
2019-05-02T07:07:24.793Z,13.30
2019-05-02T07:12:34.264Z,11.43
2019-05-02T07:17:40.164Z,11.80
2019-05-02T07:23:03.728Z,11.20
2019-05-02T07:28:09.414Z,9.70
2019-05-02T07:33:14.020Z,9.97
2019-05-02T07:38:33.804Z,9.73
2019-05-02T08:07:27.171Z,7.37
2019-05-02T08:18:37.433Z,7.10
2019-05-02T08:23:47.545Z,7.13
2019-05-02T08:29:15.983Z,7.43
2019-05-02T08:34:31.506Z,7.00
2019-05-02T08:39:41.744Z,6.53
2019-05-02T08:45:05.185Z,7.83
2019-05-02T08:55:34.922Z,5.23
2019-05-02T09:00:48.288Z,7.43
2019-05-02T09:06:05.238Z,6.63
2019-05-02T09:10:58.024Z,8.27
2019-05-02T09:16:03.589Z,7.40
2019-05-02T09:21:31.468Z,7.03
2019-05-02T09:26:36.124Z,8.00
2019-05-02T09:31:36.746Z,6.80
2019-05-02T09:36:46.711Z,6.73
2019-05-02T09:41:49.180Z,7.10
2019-05-02T09:47:05.435Z,6.00
2019-05-02T09:52:25.902Z,5.87
2019-05-02T09:57:28.792Z,6.07
2019-05-02T10:02:32.521Z,5.77
2019-05-02T10:07:37.277Z,4.50
2019-05-02T10:12:46.739Z,5.03
2019-05-02T10:17:49.341Z,4.57
2019-05-02T10:22:52.971Z,5.37
2019-05-02T10:27:56.004Z,5.07
2019-05-02T10:32:59.796Z,4.47
2019-05-02T10:38:19.266Z,4.73
2019-05-02T10:43:18.789Z,4.77
2019-05-02T10:48:28.032Z,4.37
2019-05-02T10:53:39.980Z,4.90
2019-05-02T10:58:42.642Z,4.23
2019-05-02T11:03:47.577Z,3.70
2019-05-02T11:08:52.481Z,3.60
2019-05-02T11:14:06.851Z,4.97
2019-05-02T11:19:13.021Z,4.60
2019-05-02T11:24:17.459Z,4.37
2019-05-02T11:29:19.924Z,5.20
2019-05-02T11:34:22.367Z,4.87
2019-05-02T11:39:32.894Z,4.33
2019-05-02T11:44:41.896Z,4.70
2019-05-02T11:49:46.883Z,4.90
2019-05-02T11:54:48.934Z,3.90
2019-05-02T11:59:52.141Z,5.10
2019-05-02T12:04:55.636Z,4.80
2019-05-02T12:09:58.142Z,3.50
2019-05-02T12:15:02.470Z,3.53
2019-05-02T12:20:05.232Z,3.92
2019-05-02T12:25:07.837Z,4.50
2019-05-02T12:30:11.782Z,4.78
2019-05-02T12:35:14.458Z,4.73
2019-05-02T12:40:17.011Z,4.53
2019-05-02T12:45:21.939Z,4.80
2019-05-02T12:50:24.429Z,5.27
2019-05-02T12:55:27.243Z,3.97
2019-05-02T13:00:32.025Z,4.57
2019-05-02T13:05:34.691Z,5.37
2019-05-02T13:11:01.823Z,5.10
2019-05-02T13:16:01.636Z,4.87
2019-05-02T13:21:08.003Z,4.80
2019-05-02T13:26:19.133Z,5.70
2019-05-02T13:37:16.915Z,5.35
2019-05-02T13:42:21.848Z,4.10
2019-05-02T13:47:32.507Z,4.47
2019-05-02T13:52:35.664Z,5.97
2019-05-02T13:57:46.881Z,5.83
2019-05-02T14:02:47.444Z,5.20
2019-05-02T14:07:55.644Z,6.50
2019-05-02T14:12:58.680Z,5.90
2019-05-02T14:18:02.461Z,5.25
2019-05-02T14:23:07.371Z,5.30
2019-05-02T14:28:09.723Z,5.12
2019-05-02T14:33:17.299Z,6.45
2019-05-02T14:38:19.687Z,5.08
2019-05-02T14:43:46.208Z,6.67
2019-05-02T14:48:45.586Z,7.42
2019-05-02T14:53:47.905Z,5.97
2019-05-02T14:58:52.596Z,4.67
2019-05-02T15:03:58.369Z,6.65
2019-05-02T15:08:58.575Z,6.87
2019-05-02T15:14:02.996Z,5.87
2019-05-02T15:19:06.052Z,7.20
2019-05-02T15:24:08.414Z,5.85
2019-05-02T15:29:12.291Z,7.10
2019-05-02T15:34:46.235Z,6.58
2019-05-02T15:44:46.803Z,6.20
2019-05-02T15:49:50.311Z,7.15
2019-05-02T15:54:59.921Z,7.37
2019-05-02T15:59:57.274Z,6.70
2019-05-02T16:05:02.333Z,7.53
2019-05-02T16:10:05.382Z,6.37
2019-05-02T16:15:13.514Z,7.25
2019-05-02T16:20:19.633Z,7.30
2019-05-02T16:25:24.486Z,6.80
2019-05-02T16:30:26.473Z,6.80
2019-05-02T16:35:30.470Z,6.22
2019-05-02T16:40:34.892Z,6.15
2019-05-02T16:45:37.318Z,6.65
2019-05-02T16:50:39.639Z,6.30
2019-05-02T16:55:43.633Z,6.10
2019-05-02T17:00:46.223Z,5.92
2019-05-02T17:05:49.728Z,5.93
2019-05-02T17:10:57.118Z,6.63
2019-05-02T17:16:06.922Z,6.17
2019-05-02T17:21:04.671Z,6.87
2019-05-02T17:26:07.110Z,7.23
2019-05-02T17:31:18.808Z,7.60
2019-05-02T17:36:14.869Z,6.63
2019-05-02T17:41:17.703Z,7.37
2019-05-02T17:46:23.672Z,7.30
2019-05-02T17:51:37.872Z,7.87
2019-05-02T17:56:42.026Z,7.90
2019-05-02T18:01:45.425Z,7.97
2019-05-02T18:06:52.343Z,8.43
2019-05-02T18:11:52.398Z,7.63
2019-05-02T18:16:55.703Z,7.43
2019-05-02T18:22:03.669Z,7.50
2019-05-02T18:27:03.568Z,7.77
2019-05-02T18:32:06.053Z,8.10
2019-05-02T18:37:08.622Z,7.97
2019-05-02T18:42:11.993Z,8.90
2019-05-02T18:47:20.106Z,7.57
2019-05-02T18:52:19.209Z,8.50
2019-05-02T18:57:25.854Z,8.00
2019-05-02T19:02:32.820Z,8.57
2019-05-02T19:07:35.672Z,8.93
2019-05-02T19:12:35.735Z,8.47
2019-05-02T19:17:40.372Z,9.30
2019-05-02T19:22:51.842Z,8.70
2019-05-02T19:27:59.336Z,9.03
2019-05-02T19:33:03.717Z,9.13
2019-05-02T19:38:06.211Z,7.17
2019-05-02T19:43:08.920Z,6.63
2019-05-02T19:48:13.824Z,7.00
2019-05-02T19:53:18.266Z,7.00
2019-05-02T19:58:19.999Z,6.80
2019-05-02T20:03:56.745Z,6.70
2019-05-02T20:14:47.670Z,6.57
2019-05-02T20:20:05.504Z,7.70
2019-05-02T20:25:04.037Z,6.60
2019-05-02T20:30:08.708Z,8.07
2019-05-02T20:41:23.711Z,8.13
2019-05-02T20:46:33.883Z,8.87
2019-05-02T20:51:36.566Z,8.30
2019-05-02T20:56:39.155Z,10.73
2019-05-02T21:01:42.920Z,10.57
2019-05-02T21:12:58.652Z,10.37
2019-05-02T21:18:11.615Z,10.70
2019-05-02T21:23:42.001Z,11.53
2019-05-02T21:39:51.895Z,11.23
2019-05-02T21:50:52.414Z,13.37
2019-05-02T22:02:15.343Z,11.60
2019-05-02T22:07:49.416Z,11.33
2019-05-02T22:13:19.359Z,10.73
2019-05-02T22:29:33.994Z,10.60
2019-05-02T22:40:55.218Z,10.83
2019-05-02T22:45:57.675Z,11.30
2019-05-02T22:51:00.075Z,10.83
2019-05-02T22:56:47.534Z,10.43
2019-05-02T23:02:22.583Z,10.97
2019-05-02T23:07:24.984Z,9.77
2019-05-02T23:18:26.265Z,11.90
